sensor_id;sensor_type;location;lat;lon;timestamp;temperature;humidity
83120;SHT31;73001;51.784;4.660;2023-12-28T00:01:26;11.73;78.55
83120;SHT31;73001;51.784;4.660;2023-12-28T00:03:52;11.74;78.43
83120;SHT31;73001;51.784;4.660;2023-12-28T00:15:17;11.59;79.20
83120;SHT31;73001;51.784;4.660;2023-12-28T00:17:43;11.63;78.96
83120;SHT31;73001;51.784;4.660;2023-12-28T00:23:08;11.63;78.95
83120;SHT31;73001;51.784;4.660;2023-12-28T00:26:21;11.57;79.07
83120;SHT31;73001;51.784;4.660;2023-12-28T00:47:22;11.57;78.71
83120;SHT31;73001;51.784;4.660;2023-12-28T00:54:31;11.50;78.88
83120;SHT31;73001;51.784;4.660;2023-12-28T00:57:53;11.50;78.80
83120;SHT31;73001;51.784;4.660;2023-12-28T01:07:52;11.44;78.64
83120;SHT31;73001;51.784;4.660;2023-12-28T01:18:55;11.44;78.74
83120;SHT31;73001;51.784;4.660;2023-12-28T01:40:07;11.51;78.71
83120;SHT31;73001;51.784;4.660;2023-12-28T02:28:57;11.54;78.77
83120;SHT31;73001;51.784;4.660;2023-12-28T02:31:38;11.54;78.76
83120;SHT31;73001;51.784;4.660;2023-12-28T02:34:12;11.53;78.80
83120;SHT31;73001;51.784;4.660;2023-12-28T02:36:44;11.53;78.77
83120;SHT31;73001;51.784;4.660;2023-12-28T02:39:22;11.46;78.93
83120;SHT31;73001;51.784;4.660;2023-12-28T02:41:51;11.47;78.98
83120;SHT31;73001;51.784;4.660;2023-12-28T02:44:20;11.46;79.12
83120;SHT31;73001;51.784;4.660;2023-12-28T02:46:48;11.49;78.91
83120;SHT31;73001;51.784;4.660;2023-12-28T02:49:24;11.49;78.93
83120;SHT31;73001;51.784;4.660;2023-12-28T02:52:15;11.53;78.87
83120;SHT31;73001;51.784;4.660;2023-12-28T02:55:05;11.49;78.96
83120;SHT31;73001;51.784;4.660;2023-12-28T02:57:59;11.63;78.73
83120;SHT31;73001;51.784;4.660;2023-12-28T03:00:49;11.56;79.01
83120;SHT31;73001;51.784;4.660;2023-12-28T03:03:15;11.61;78.73
83120;SHT31;73001;51.784;4.660;2023-12-28T03:06:07;11.59;78.59
83120;SHT31;73001;51.784;4.660;2023-12-28T03:08:59;11.56;78.79
83120;SHT31;73001;51.784;4.660;2023-12-28T03:11:48;11.49;78.90
83120;SHT31;73001;51.784;4.660;2023-12-28T03:14:39;11.49;78.79
83120;SHT31;73001;51.784;4.660;2023-12-28T03:17:09;11.54;78.64
83120;SHT31;73001;51.784;4.660;2023-12-28T03:27:58;11.34;79.11
83120;SHT31;73001;51.784;4.660;2023-12-28T03:30:28;11.36;79.02
83120;SHT31;73001;51.784;4.660;2023-12-28T03:33:22;11.37;78.85
83120;SHT31;73001;51.784;4.660;2023-12-28T03:38:33;11.31;78.98
83120;SHT31;73001;51.784;4.660;2023-12-28T03:49:00;11.37;78.60
83120;SHT31;73001;51.784;4.660;2023-12-28T03:51:26;11.34;78.54
83120;SHT31;73001;51.784;4.660;2023-12-28T03:53:57;11.34;78.48
83120;SHT31;73001;51.784;4.660;2023-12-28T04:04:09;11.22;78.71
83120;SHT31;73001;51.784;4.660;2023-12-28T04:17:15;11.26;78.31
83120;SHT31;73001;51.784;4.660;2023-12-28T04:24:51;11.26;78.68
83120;SHT31;73001;51.784;4.660;2023-12-28T04:35:15;11.47;77.86
83120;SHT31;73001;51.784;4.660;2023-12-28T04:37:43;11.51;77.49
83120;SHT31;73001;51.784;4.660;2023-12-28T04:45:25;11.61;77.40
83120;SHT31;73001;51.784;4.660;2023-12-28T04:47:53;11.63;77.22
83120;SHT31;73001;51.784;4.660;2023-12-28T04:50:19;11.63;77.14
83120;SHT31;73001;51.784;4.660;2023-12-28T04:52:48;11.67;76.56
83120;SHT31;73001;51.784;4.660;2023-12-28T04:55:19;11.73;76.97
83120;SHT31;73001;51.784;4.660;2023-12-28T04:57:51;11.66;76.99
83120;SHT31;73001;51.784;4.660;2023-12-28T05:00:44;11.67;76.87
83120;SHT31;73001;51.784;4.660;2023-12-28T05:03:36;11.74;76.74
83120;SHT31;73001;51.784;4.660;2023-12-28T05:06:11;11.77;76.54
83120;SHT31;73001;51.784;4.660;2023-12-28T05:08:51;11.80;76.17
83120;SHT31;73001;51.784;4.660;2023-12-28T05:11:23;11.77;76.40
83120;SHT31;73001;51.784;4.660;2023-12-28T05:13:57;11.75;76.60
83120;SHT31;73001;51.784;4.660;2023-12-28T05:16:33;11.73;76.42
83120;SHT31;73001;51.784;4.660;2023-12-28T05:21:49;11.75;76.28
83120;SHT31;73001;51.784;4.660;2023-12-28T05:24:19;11.73;76.26
83120;SHT31;73001;51.784;4.660;2023-12-28T05:26:50;11.80;75.81
83120;SHT31;73001;51.784;4.660;2023-12-28T05:29:21;11.82;75.52
83120;SHT31;73001;51.784;4.660;2023-12-28T05:32:00;11.80;75.57
83120;SHT31;73001;51.784;4.660;2023-12-28T05:37:04;11.87;75.48
83120;SHT31;73001;51.784;4.660;2023-12-28T05:42:05;11.95;75.13
83120;SHT31;73001;51.784;4.660;2023-12-28T05:44:31;11.95;74.89
83120;SHT31;73001;51.784;4.660;2023-12-28T05:47:03;11.90;75.16
83120;SHT31;73001;51.784;4.660;2023-12-28T05:49:38;11.94;75.05
83120;SHT31;73001;51.784;4.660;2023-12-28T05:52:07;11.94;74.93
83120;SHT31;73001;51.784;4.660;2023-12-28T05:54:39;11.97;74.68
83120;SHT31;73001;51.784;4.660;2023-12-28T05:57:18;11.95;74.82
83120;SHT31;73001;51.784;4.660;2023-12-28T05:59:47;11.98;74.69
83120;SHT31;73001;51.784;4.660;2023-12-28T06:02:16;11.91;74.76
83120;SHT31;73001;51.784;4.660;2023-12-28T06:05:05;11.95;74.77
83120;SHT31;73001;51.784;4.660;2023-12-28T06:07:49;11.97;74.36
83120;SHT31;73001;51.784;4.660;2023-12-28T06:10:40;11.92;74.53
83120;SHT31;73001;51.784;4.660;2023-12-28T06:13:21;11.92;74.36
83120;SHT31;73001;51.784;4.660;2023-12-28T06:16:28;11.94;74.63
83120;SHT31;73001;51.784;4.660;2023-12-28T06:19:10;11.95;74.27
83120;SHT31;73001;51.784;4.660;2023-12-28T06:21:43;11.95;74.41
83120;SHT31;73001;51.784;4.660;2023-12-28T06:24:22;11.88;74.68
83120;SHT31;73001;51.784;4.660;2023-12-28T06:26:52;11.85;74.84
83120;SHT31;73001;51.784;4.660;2023-12-28T06:29:22;11.84;74.83
83120;SHT31;73001;51.784;4.660;2023-12-28T06:31:56;11.87;74.58
83120;SHT31;73001;51.784;4.660;2023-12-28T06:34:29;11.80;74.80
83120;SHT31;73001;51.784;4.660;2023-12-28T06:36:55;11.78;74.95
83120;SHT31;73001;51.784;4.660;2023-12-28T06:39:23;11.75;75.14
83120;SHT31;73001;51.784;4.660;2023-12-28T06:41:56;11.75;74.99
83120;SHT31;73001;51.784;4.660;2023-12-28T06:44:23;11.73;75.16
83120;SHT31;73001;51.784;4.660;2023-12-28T06:47:16;11.66;75.20
83120;SHT31;73001;51.784;4.660;2023-12-28T06:49:49;11.61;75.47
83120;SHT31;73001;51.784;4.660;2023-12-28T06:52:17;11.59;75.41
83120;SHT31;73001;51.784;4.660;2023-12-28T06:54:51;11.64;75.43
83120;SHT31;73001;51.784;4.660;2023-12-28T06:57:29;11.57;75.44
83120;SHT31;73001;51.784;4.660;2023-12-28T07:00:13;11.53;75.65
83120;SHT31;73001;51.784;4.660;2023-12-28T07:02:50;11.47;75.83
83120;SHT31;73001;51.784;4.660;2023-12-28T07:05:18;11.47;75.83
83120;SHT31;73001;51.784;4.660;2023-12-28T07:07:47;11.41;75.87
83120;SHT31;73001;51.784;4.660;2023-12-28T07:12:57;11.41;76.06
83120;SHT31;73001;51.784;4.660;2023-12-28T07:15:23;11.41;76.03
83120;SHT31;73001;51.784;4.660;2023-12-28T07:17:48;11.43;75.99
83120;SHT31;73001;51.784;4.660;2023-12-28T07:20:17;11.49;75.91
83120;SHT31;73001;51.784;4.660;2023-12-28T07:22:44;11.49;76.04
83120;SHT31;73001;51.784;4.660;2023-12-28T07:30:30;11.60;75.61
83120;SHT31;73001;51.784;4.660;2023-12-28T07:35:32;11.66;75.48
83120;SHT31;73001;51.784;4.660;2023-12-28T07:38:35;11.66;75.44
83120;SHT31;73001;51.784;4.660;2023-12-28T07:58:50;11.73;75.24
83120;SHT31;73001;51.784;4.660;2023-12-28T08:39:41;11.90;74.62
83120;SHT31;73001;51.784;4.660;2023-12-28T09:00:12;11.98;74.10
83120;SHT31;73001;51.784;4.660;2023-12-28T09:03:11;11.98;73.91
83120;SHT31;73001;51.784;4.660;2023-12-28T09:05:53;12.02;73.78
83120;SHT31;73001;51.784;4.660;2023-12-28T09:08:23;12.14;73.51
83120;SHT31;73001;51.784;4.660;2023-12-28T09:10:52;12.15;73.24
83120;SHT31;73001;51.784;4.660;2023-12-28T09:13:31;12.17;73.39
83120;SHT31;73001;51.784;4.660;2023-12-28T09:16:03;12.15;73.70
83120;SHT31;73001;51.784;4.660;2023-12-28T09:19:13;12.14;73.59
83120;SHT31;73001;51.784;4.660;2023-12-28T09:21:39;12.09;73.73
83120;SHT31;73001;51.784;4.660;2023-12-28T09:24:09;12.15;73.54
83120;SHT31;73001;51.784;4.660;2023-12-28T09:27:04;12.15;73.31
83120;SHT31;73001;51.784;4.660;2023-12-28T09:33:04;12.31;73.06
83120;SHT31;73001;51.784;4.660;2023-12-28T09:35:55;12.28;73.19
83120;SHT31;73001;51.784;4.660;2023-12-28T09:38:53;12.32;73.07
83120;SHT31;73001;51.784;4.660;2023-12-28T09:41:47;12.39;73.01
83120;SHT31;73001;51.784;4.660;2023-12-28T09:47:25;12.55;72.41
83120;SHT31;73001;51.784;4.660;2023-12-28T09:49:56;12.62;72.07
83120;SHT31;73001;51.784;4.660;2023-12-28T09:52:49;12.59;71.90
83120;SHT31;73001;51.784;4.660;2023-12-28T09:55:16;12.59;71.99
83120;SHT31;73001;51.784;4.660;2023-12-28T09:58:02;12.66;71.93
83120;SHT31;73001;51.784;4.660;2023-12-28T10:00:37;12.67;72.13
83120;SHT31;73001;51.784;4.660;2023-12-28T10:03:08;12.76;71.62
83120;SHT31;73001;51.784;4.660;2023-12-28T10:06:01;12.77;71.57
83120;SHT31;73001;51.784;4.660;2023-12-28T10:08:28;12.77;71.58
83120;SHT31;73001;51.784;4.660;2023-12-28T10:11:21;12.80;71.52
83120;SHT31;73001;51.784;4.660;2023-12-28T10:14:17;12.80;71.54
83120;SHT31;73001;51.784;4.660;2023-12-28T10:16:49;12.70;71.49
83120;SHT31;73001;51.784;4.660;2023-12-28T10:19:45;12.75;71.76
83120;SHT31;73001;51.784;4.660;2023-12-28T10:25:46;12.84;71.35
83120;SHT31;73001;51.784;4.660;2023-12-28T10:28:35;12.90;71.62
83120;SHT31;73001;51.784;4.660;2023-12-28T10:34:14;12.99;70.83
83120;SHT31;73001;51.784;4.660;2023-12-28T10:36:52;12.89;71.18
83120;SHT31;73001;51.784;4.660;2023-12-28T10:39:20;12.94;71.06
83120;SHT31;73001;51.784;4.660;2023-12-28T10:42:15;12.94;71.12
83120;SHT31;73001;51.784;4.660;2023-12-28T10:45:03;12.93;71.07
83120;SHT31;73001;51.784;4.660;2023-12-28T10:47:38;12.89;71.30
83120;SHT31;73001;51.784;4.660;2023-12-28T10:50:13;12.83;71.46
83120;SHT31;73001;51.784;4.660;2023-12-28T11:02:45;12.79;71.18
83120;SHT31;73001;51.784;4.660;2023-12-28T11:09:23;13.06;70.79
83120;SHT31;73001;51.784;4.660;2023-12-28T11:26:15;13.21;70.21
83120;SHT31;73001;51.784;4.660;2023-12-28T11:39:58;13.18;69.81
83120;SHT31;73001;51.784;4.660;2023-12-28T11:42:30;13.17;70.33
83120;SHT31;73001;51.784;4.660;2023-12-28T11:45:06;13.18;69.40
83120;SHT31;73001;51.784;4.660;2023-12-28T11:47:41;13.18;69.88
83120;SHT31;73001;51.784;4.660;2023-12-28T11:50:10;13.15;70.07
83120;SHT31;73001;51.784;4.660;2023-12-28T11:53:05;13.15;70.13
83120;SHT31;73001;51.784;4.660;2023-12-28T11:55:46;13.11;70.22
83120;SHT31;73001;51.784;4.660;2023-12-28T11:58:46;13.06;70.04
83120;SHT31;73001;51.784;4.660;2023-12-28T12:01:31;13.10;70.26
83120;SHT31;73001;51.784;4.660;2023-12-28T12:10:18;13.13;69.70
83120;SHT31;73001;51.784;4.660;2023-12-28T12:12:51;13.11;70.21
83120;SHT31;73001;51.784;4.660;2023-12-28T12:18:57;13.17;70.17
83120;SHT31;73001;51.784;4.660;2023-12-28T12:21:47;13.15;70.28
83120;SHT31;73001;51.784;4.660;2023-12-28T12:28:30;13.15;69.73
83120;SHT31;73001;51.784;4.660;2023-12-28T12:48:38;12.93;70.36
83120;SHT31;73001;51.784;4.660;2023-12-28T13:12:41;13.14;70.11
83120;SHT31;73001;51.784;4.660;2023-12-28T13:19:14;13.10;69.91
83120;SHT31;73001;51.784;4.660;2023-12-28T13:25:34;13.03;70.18
83120;SHT31;73001;51.784;4.660;2023-12-28T13:52:17;12.87;70.49
83120;SHT31;73001;51.784;4.660;2023-12-28T14:23:27;12.72;71.31
83120;SHT31;73001;51.784;4.660;2023-12-28T14:25:54;12.69;71.52
83120;SHT31;73001;51.784;4.660;2023-12-28T14:28:21;12.76;71.40
83120;SHT31;73001;51.784;4.660;2023-12-28T14:30:52;12.83;71.15
83120;SHT31;73001;51.784;4.660;2023-12-28T14:33:18;12.80;70.19
83120;SHT31;73001;51.784;4.660;2023-12-28T14:35:45;12.86;70.25
83120;SHT31;73001;51.784;4.660;2023-12-28T14:38:11;12.79;70.66
83120;SHT31;73001;51.784;4.660;2023-12-28T14:40:38;12.73;70.89
83120;SHT31;73001;51.784;4.660;2023-12-28T14:43:04;12.76;70.50
83120;SHT31;73001;51.784;4.660;2023-12-28T14:45:30;12.73;70.30
83120;SHT31;73001;51.784;4.660;2023-12-28T14:47:56;12.75;70.68
83120;SHT31;73001;51.784;4.660;2023-12-28T14:50:22;12.72;70.19
83120;SHT31;73001;51.784;4.660;2023-12-28T14:52:47;12.76;70.22
83120;SHT31;73001;51.784;4.660;2023-12-28T14:55:19;12.72;70.51
83120;SHT31;73001;51.784;4.660;2023-12-28T14:57:44;12.72;70.16
83120;SHT31;73001;51.784;4.660;2023-12-28T15:00:10;12.69;70.46
83120;SHT31;73001;51.784;4.660;2023-12-28T15:02:37;12.69;70.31
83120;SHT31;73001;51.784;4.660;2023-12-28T15:05:21;12.72;69.92
83120;SHT31;73001;51.784;4.660;2023-12-28T15:07:47;12.69;70.23
83120;SHT31;73001;51.784;4.660;2023-12-28T15:10:14;12.72;70.27
83120;SHT31;73001;51.784;4.660;2023-12-28T15:12:41;12.67;70.24
83120;SHT31;73001;51.784;4.660;2023-12-28T15:15:09;12.70;69.90
83120;SHT31;73001;51.784;4.660;2023-12-28T15:17:38;12.62;70.02
83120;SHT31;73001;51.784;4.660;2023-12-28T15:20:05;12.63;70.06
83120;SHT31;73001;51.784;4.660;2023-12-28T15:22:33;12.57;70.21
83120;SHT31;73001;51.784;4.660;2023-12-28T15:25:00;12.57;69.94
83120;SHT31;73001;51.784;4.660;2023-12-28T15:27:26;12.59;70.17
83120;SHT31;73001;51.784;4.660;2023-12-28T15:29:52;12.55;69.99
83120;SHT31;73001;51.784;4.660;2023-12-28T15:32:18;12.52;70.39
83120;SHT31;73001;51.784;4.660;2023-12-28T15:34:43;12.56;70.27
83120;SHT31;73001;51.784;4.660;2023-12-28T15:37:09;12.63;70.41
83120;SHT31;73001;51.784;4.660;2023-12-28T15:39:35;12.62;70.28
83120;SHT31;73001;51.784;4.660;2023-12-28T15:42:02;12.59;70.24
83120;SHT31;73001;51.784;4.660;2023-12-28T15:44:28;12.57;69.81
83120;SHT31;73001;51.784;4.660;2023-12-28T15:46:53;12.50;69.86
83120;SHT31;73001;51.784;4.660;2023-12-28T15:49:21;12.53;69.85
83120;SHT31;73001;51.784;4.660;2023-12-28T15:51:46;12.49;70.13
83120;SHT31;73001;51.784;4.660;2023-12-28T15:54:13;12.52;70.03
83120;SHT31;73001;51.784;4.660;2023-12-28T15:56:38;12.46;70.22
83120;SHT31;73001;51.784;4.660;2023-12-28T15:59:04;12.43;70.37
83120;SHT31;73001;51.784;4.660;2023-12-28T16:01:30;12.46;70.30
83120;SHT31;73001;51.784;4.660;2023-12-28T16:03:59;12.46;70.14
83120;SHT31;73001;51.784;4.660;2023-12-28T16:06:24;12.49;70.25
83120;SHT31;73001;51.784;4.660;2023-12-28T16:08:52;12.52;70.12
83120;SHT31;73001;51.784;4.660;2023-12-28T16:11:18;12.50;70.11
83120;SHT31;73001;51.784;4.660;2023-12-28T16:13:45;12.49;70.25
83120;SHT31;73001;51.784;4.660;2023-12-28T16:16:15;12.56;70.17
83120;SHT31;73001;51.784;4.660;2023-12-28T16:18:42;12.52;70.15
83120;SHT31;73001;51.784;4.660;2023-12-28T16:21:08;12.49;70.20
83120;SHT31;73001;51.784;4.660;2023-12-28T16:23:38;12.45;70.19
83120;SHT31;73001;51.784;4.660;2023-12-28T16:26:04;12.45;70.35
83120;SHT31;73001;51.784;4.660;2023-12-28T16:28:32;12.43;70.37
83120;SHT31;73001;51.784;4.660;2023-12-28T16:31:05;12.38;70.42
83120;SHT31;73001;51.784;4.660;2023-12-28T16:33:32;12.35;70.48
83120;SHT31;73001;51.784;4.660;2023-12-28T16:36:01;12.36;70.35
83120;SHT31;73001;51.784;4.660;2023-12-28T16:38:32;12.43;70.49
83120;SHT31;73001;51.784;4.660;2023-12-28T16:40:58;12.41;70.34
83120;SHT31;73001;51.784;4.660;2023-12-28T16:43:28;12.41;70.64
83120;SHT31;73001;51.784;4.660;2023-12-28T16:45:56;12.43;70.08
83120;SHT31;73001;51.784;4.660;2023-12-28T16:48:22;12.39;70.19
83120;SHT31;73001;51.784;4.660;2023-12-28T16:50:48;12.41;70.56
83120;SHT31;73001;51.784;4.660;2023-12-28T16:53:14;12.43;70.59
83120;SHT31;73001;51.784;4.660;2023-12-28T16:55:40;12.45;70.23
83120;SHT31;73001;51.784;4.660;2023-12-28T16:58:06;12.41;70.35
83120;SHT31;73001;51.784;4.660;2023-12-28T17:00:32;12.33;70.55
83120;SHT31;73001;51.784;4.660;2023-12-28T17:03:04;12.31;70.68
83120;SHT31;73001;51.784;4.660;2023-12-28T17:05:30;12.33;70.64
83120;SHT31;73001;51.784;4.660;2023-12-28T17:07:57;12.29;70.53
83120;SHT31;73001;51.784;4.660;2023-12-28T17:10:25;12.21;70.89
83120;SHT31;73001;51.784;4.660;2023-12-28T17:12:52;12.21;70.70
83120;SHT31;73001;51.784;4.660;2023-12-28T17:15:19;12.19;70.96
83120;SHT31;73001;51.784;4.660;2023-12-28T17:18:10;12.17;70.87
83120;SHT31;73001;51.784;4.660;2023-12-28T17:20:36;12.19;70.97
83120;SHT31;73001;51.784;4.660;2023-12-28T17:23:09;12.17;70.81
83120;SHT31;73001;51.784;4.660;2023-12-28T17:26:00;12.21;70.73
83120;SHT31;73001;51.784;4.660;2023-12-28T17:28:37;12.19;70.64
83120;SHT31;73001;51.784;4.660;2023-12-28T17:31:11;12.21;70.59
83120;SHT31;73001;51.784;4.660;2023-12-28T17:33:40;12.24;70.50
83120;SHT31;73001;51.784;4.660;2023-12-28T17:36:08;12.28;70.23
83120;SHT31;73001;51.784;4.660;2023-12-28T17:38:39;12.28;70.55
83120;SHT31;73001;51.784;4.660;2023-12-28T17:41:11;12.26;70.57
83120;SHT31;73001;51.784;4.660;2023-12-28T17:44:05;12.31;70.57
83120;SHT31;73001;51.784;4.660;2023-12-28T17:49:18;12.29;70.33
83120;SHT31;73001;51.784;4.660;2023-12-28T17:51:50;12.32;70.13
83120;SHT31;73001;51.784;4.660;2023-12-28T17:54:26;12.31;70.36
83120;SHT31;73001;51.784;4.660;2023-12-28T17:57:13;12.26;70.31
83120;SHT31;73001;51.784;4.660;2023-12-28T17:59:44;12.28;70.38
83120;SHT31;73001;51.784;4.660;2023-12-28T18:02:11;12.33;70.34
83120;SHT31;73001;51.784;4.660;2023-12-28T18:04:41;12.29;70.06
83120;SHT31;73001;51.784;4.660;2023-12-28T18:07:13;12.33;70.09
83120;SHT31;73001;51.784;4.660;2023-12-28T18:09:40;12.26;70.11
83120;SHT31;73001;51.784;4.660;2023-12-28T18:12:19;12.28;70.17
83120;SHT31;73001;51.784;4.660;2023-12-28T18:14:52;12.32;70.04
83120;SHT31;73001;51.784;4.660;2023-12-28T18:17:18;12.32;70.05
83120;SHT31;73001;51.784;4.660;2023-12-28T18:19:43;12.32;70.23
83120;SHT31;73001;51.784;4.660;2023-12-28T18:22:11;12.33;70.07
83120;SHT31;73001;51.784;4.660;2023-12-28T18:24:37;12.32;70.30
83120;SHT31;73001;51.784;4.660;2023-12-28T18:27:03;12.28;69.99
83120;SHT31;73001;51.784;4.660;2023-12-28T18:29:29;12.38;70.26
83120;SHT31;73001;51.784;4.660;2023-12-28T18:31:55;12.39;70.10
83120;SHT31;73001;51.784;4.660;2023-12-28T18:34:20;12.41;69.86
83120;SHT31;73001;51.784;4.660;2023-12-28T18:36:49;12.39;69.85
83120;SHT31;73001;51.784;4.660;2023-12-28T18:39:17;12.53;69.66
83120;SHT31;73001;51.784;4.660;2023-12-28T18:41:45;12.46;69.79
83120;SHT31;73001;51.784;4.660;2023-12-28T18:46:46;12.35;69.83
83120;SHT31;73001;51.784;4.660;2023-12-28T18:49:12;12.38;69.88
83120;SHT31;73001;51.784;4.660;2023-12-28T18:54:15;12.39;70.34
83120;SHT31;73001;51.784;4.660;2023-12-28T18:56:41;12.36;70.07
83120;SHT31;73001;51.784;4.660;2023-12-28T18:59:06;12.38;70.11
83120;SHT31;73001;51.784;4.660;2023-12-28T19:01:32;12.42;69.64
83120;SHT31;73001;51.784;4.660;2023-12-28T19:03:58;12.42;69.58
83120;SHT31;73001;51.784;4.660;2023-12-28T19:06:31;12.29;70.11
83120;SHT31;73001;51.784;4.660;2023-12-28T19:11:38;12.33;70.26
83120;SHT31;73001;51.784;4.660;2023-12-28T19:16:34;12.35;70.06
83120;SHT31;73001;51.784;4.660;2023-12-28T19:19:00;12.35;70.22
83120;SHT31;73001;51.784;4.660;2023-12-28T19:21:26;12.41;69.91
83120;SHT31;73001;51.784;4.660;2023-12-28T19:23:52;12.42;70.03
83120;SHT31;73001;51.784;4.660;2023-12-28T19:26:19;12.41;70.10
83120;SHT31;73001;51.784;4.660;2023-12-28T19:28:45;12.45;70.19
83120;SHT31;73001;51.784;4.660;2023-12-28T19:31:11;12.45;69.81
83120;SHT31;73001;51.784;4.660;2023-12-28T19:33:37;12.43;69.94
83120;SHT31;73001;51.784;4.660;2023-12-28T19:36:03;12.42;70.15
83120;SHT31;73001;51.784;4.660;2023-12-28T19:38:29;12.45;69.69
83120;SHT31;73001;51.784;4.660;2023-12-28T19:40:55;12.42;70.31
83120;SHT31;73001;51.784;4.660;2023-12-28T19:51:07;12.39;70.00
83120;SHT31;73001;51.784;4.660;2023-12-28T19:53:32;12.39;70.09
83120;SHT31;73001;51.784;4.660;2023-12-28T19:56:01;12.38;70.11
83120;SHT31;73001;51.784;4.660;2023-12-28T20:01:05;12.33;70.08
83120;SHT31;73001;51.784;4.660;2023-12-28T20:03:31;12.35;70.30
83120;SHT31;73001;51.784;4.660;2023-12-28T20:05:57;12.35;70.10
83120;SHT31;73001;51.784;4.660;2023-12-28T20:13:34;12.29;70.66
83120;SHT31;73001;51.784;4.660;2023-12-28T20:21:39;12.33;70.64
83120;SHT31;73001;51.784;4.660;2023-12-28T20:24:05;12.31;69.97
83120;SHT31;73001;51.784;4.660;2023-12-28T20:26:34;12.31;70.34
83120;SHT31;73001;51.784;4.660;2023-12-28T20:28:59;12.32;70.40
83120;SHT31;73001;51.784;4.660;2023-12-28T20:31:25;12.24;70.33
83120;SHT31;73001;51.784;4.660;2023-12-28T20:33:58;12.26;70.63
83120;SHT31;73001;51.784;4.660;2023-12-28T20:41:36;12.31;70.63
83120;SHT31;73001;51.784;4.660;2023-12-28T20:44:02;12.32;70.59
83120;SHT31;73001;51.784;4.660;2023-12-28T20:46:29;12.28;70.73
83120;SHT31;73001;51.784;4.660;2023-12-28T20:48:55;12.29;70.65
83120;SHT31;73001;51.784;4.660;2023-12-28T20:51:24;12.31;70.04
83120;SHT31;73001;51.784;4.660;2023-12-28T20:53:54;12.36;70.59
83120;SHT31;73001;51.784;4.660;2023-12-28T20:56:26;12.32;70.32
83120;SHT31;73001;51.784;4.660;2023-12-28T20:58:54;12.26;70.67
83120;SHT31;73001;51.784;4.660;2023-12-28T21:01:19;12.28;70.75
83120;SHT31;73001;51.784;4.660;2023-12-28T21:03:46;12.28;70.96
83120;SHT31;73001;51.784;4.660;2023-12-28T21:08:47;12.28;70.72
83120;SHT31;73001;51.784;4.660;2023-12-28T21:11:13;12.29;70.65
83120;SHT31;73001;51.784;4.660;2023-12-28T21:13:42;12.36;70.48
83120;SHT31;73001;51.784;4.660;2023-12-28T21:16:09;12.32;70.62
83120;SHT31;73001;51.784;4.660;2023-12-28T21:18:35;12.24;70.85
83120;SHT31;73001;51.784;4.660;2023-12-28T21:21:01;12.31;70.88
83120;SHT31;73001;51.784;4.660;2023-12-28T21:23:28;12.29;71.01
83120;SHT31;73001;51.784;4.660;2023-12-28T21:25:53;12.25;70.86
83120;SHT31;73001;51.784;4.660;2023-12-28T21:28:22;12.24;71.06
83120;SHT31;73001;51.784;4.660;2023-12-28T21:30:48;12.25;70.97
83120;SHT31;73001;51.784;4.660;2023-12-28T21:33:14;12.32;70.48
83120;SHT31;73001;51.784;4.660;2023-12-28T21:35:40;12.26;70.95
83120;SHT31;73001;51.784;4.660;2023-12-28T21:38:05;12.26;70.90
83120;SHT31;73001;51.784;4.660;2023-12-28T21:40:34;12.21;70.86
83120;SHT31;73001;51.784;4.660;2023-12-28T21:43:05;12.28;70.97
83120;SHT31;73001;51.784;4.660;2023-12-28T21:45:32;12.28;70.76
83120;SHT31;73001;51.784;4.660;2023-12-28T21:47:58;12.25;71.22
83120;SHT31;73001;51.784;4.660;2023-12-28T21:50:24;12.35;70.65
83120;SHT31;73001;51.784;4.660;2023-12-28T21:52:51;12.29;70.71
83120;SHT31;73001;51.784;4.660;2023-12-28T21:55:18;12.33;70.91
83120;SHT31;73001;51.784;4.660;2023-12-28T21:57:46;12.36;70.67
83120;SHT31;73001;51.784;4.660;2023-12-28T22:00:12;12.31;70.80
83120;SHT31;73001;51.784;4.660;2023-12-28T22:02:40;12.28;71.00
83120;SHT31;73001;51.784;4.660;2023-12-28T22:05:09;12.24;71.03
83120;SHT31;73001;51.784;4.660;2023-12-28T22:07:36;12.24;71.01
83120;SHT31;73001;51.784;4.660;2023-12-28T22:12:31;12.19;71.28
83120;SHT31;73001;51.784;4.660;2023-12-28T22:14:58;12.21;71.06
83120;SHT31;73001;51.784;4.660;2023-12-28T22:17:25;12.24;71.19
83120;SHT31;73001;51.784;4.660;2023-12-28T22:19:55;12.26;71.11
83120;SHT31;73001;51.784;4.660;2023-12-28T22:22:29;12.26;71.15
83120;SHT31;73001;51.784;4.660;2023-12-28T22:25:19;12.24;71.25
83120;SHT31;73001;51.784;4.660;2023-12-28T22:30:29;12.17;71.90
83120;SHT31;73001;51.784;4.660;2023-12-28T22:32:56;12.18;72.05
83120;SHT31;73001;51.784;4.660;2023-12-28T22:35:24;12.26;72.06
83120;SHT31;73001;51.784;4.660;2023-12-28T22:37:53;12.22;72.25
83120;SHT31;73001;51.784;4.660;2023-12-28T22:40:22;12.14;72.23
83120;SHT31;73001;51.784;4.660;2023-12-28T22:42:55;12.11;72.47
83120;SHT31;73001;51.784;4.660;2023-12-28T22:45:29;12.11;72.39
83120;SHT31;73001;51.784;4.660;2023-12-28T22:48:17;12.12;72.58
83120;SHT31;73001;51.784;4.660;2023-12-28T22:51:07;12.17;72.26
83120;SHT31;73001;51.784;4.660;2023-12-28T22:53:50;12.17;72.33
83120;SHT31;73001;51.784;4.660;2023-12-28T22:56:36;12.15;72.28
83120;SHT31;73001;51.784;4.660;2023-12-28T22:59:42;12.14;72.59
83120;SHT31;73001;51.784;4.660;2023-12-28T23:02:18;12.15;72.54
83120;SHT31;73001;51.784;4.660;2023-12-28T23:05:02;12.19;72.57
83120;SHT31;73001;51.784;4.660;2023-12-28T23:07:33;12.17;72.87
83120;SHT31;73001;51.784;4.660;2023-12-28T23:09:59;12.11;73.44
83120;SHT31;73001;51.784;4.660;2023-12-28T23:12:41;12.08;73.43
83120;SHT31;73001;51.784;4.660;2023-12-28T23:17:49;12.12;73.10
83120;SHT31;73001;51.784;4.660;2023-12-28T23:22:51;12.14;73.31
83120;SHT31;73001;51.784;4.660;2023-12-28T23:30:28;12.12;73.65
83120;SHT31;73001;51.784;4.660;2023-12-28T23:35:56;11.98;76.55
83120;SHT31;73001;51.784;4.660;2023-12-28T23:38:22;11.91;76.71
83120;SHT31;73001;51.784;4.660;2023-12-28T23:43:28;11.77;77.35
83120;SHT31;73001;51.784;4.660;2023-12-28T23:45:54;11.71;77.07
83120;SHT31;73001;51.784;4.660;2023-12-28T23:48:23;11.75;76.87
83120;SHT31;73001;51.784;4.660;2023-12-28T23:50:57;11.75;76.44
83120;SHT31;73001;51.784;4.660;2023-12-28T23:53:25;11.81;75.99
83120;SHT31;73001;51.784;4.660;2023-12-28T23:55:51;11.80;75.87
83120;SHT31;73001;51.784;4.660;2023-12-28T23:58:17;11.80;75.73
